Watford, Canada
Current Conditions -  °F | °C
As of 8:00 PM on Thursday 27 Nov 2014 (Local Time) from CYZR Reporting Station
Light Snow Light Snow  
Wind Chill: 17°   Ceiling: 3000
Heat Index: 28°   Visibility: 9mi
Dew Point: 18°   Wind: 16mph
Humidity: 64%   Direction: 320°NW
Pressure: 30.24"   Gusts: NA
Location:  42.95°N, 81.88°W
Report Text: CYZR 280100Z AUTO 32014KT 9SM -SN OVC030 M02/M08 A3024 RMK SLP248
Loading
Personal Weather Stations






























Interactive Weather Map New forecast layout! Learn more

10-Day Weather Forecast

Advertisements
Track Severe Weather on mobile